Time;durP1;ratioP1;P1;durP2;ratioP2;P2;SDS_P1;SDS_P2;PMS_P1;PMS_P2;Temp;Humidity;BMP_temperature;BMP_pressure;BME280_temperature;BME280_humidity;BME280_pressure;Samples;Min_cycle;Max_cycle;Signal;HPM_P1;HPM_P2
2022/03/08 00:00:34;;;;;;;;;;;;;;;15.91;57.21;98948.34;2072393;28;20457;-59
2022/03/08 00:01:36;;;;;;;;;;;;;;;15.90;57.09;98942.16;2070827;28;19937;-60
2022/03/08 00:02:36;;;;;;;;;;;;;;;15.90;57.18;98944.00;2069556;28;19939;-58
2022/03/08 00:03:38;;;;;;;;;;;;;;;15.88;57.16;98948.69;2072883;28;19931;-56
2022/03/08 00:04:39;;;;;;;;;;;;;;;15.88;57.16;98943.34;2071595;28;19929;-57
2022/03/08 00:05:40;;;;;;;;;;;;;;;15.87;57.14;98945.19;2071434;28;20442;-58
2022/03/08 00:06:41;;;;;;;;;;;;;;;15.87;57.06;98945.19;2071365;28;20403;-58
2022/03/08 00:07:43;;;;;;;;;;;;;;;15.85;57.09;98945.41;2074813;28;19925;-58
2022/03/08 00:08:43;;;;;;;;;;;;;;;15.83;57.12;98947.41;2069998;28;19933;-58
2022/03/08 00:09:45;;;;;;;;;;;;;;;15.82;57.12;98945.75;2066201;28;20121;-57
2022/03/08 00:10:46;;;;;;;;;;;;;;;15.81;57.18;98946.75;2076613;28;19925;-58
2022/03/08 00:11:47;;;;;;;;;;;;;;;15.81;57.21;98949.41;2074094;28;20044;-59
2022/03/08 00:12:48;;;;;;;;;;;;;;;15.79;57.11;98951.44;2068542;28;20383;-58
2022/03/08 00:13:51;;;;;;;;;;;;;;;15.79;57.13;98954.09;2071261;28;20470;-57
2022/03/08 00:14:52;;;;;;;;;;;;;;;15.77;57.26;98950.78;2067842;28;19978;-57
2022/03/08 00:15:53;;;;;;;;;;;;;;;15.77;57.17;98955.31;2068820;28;19999;-59
2022/03/08 00:16:54;;;;;;;;;;;;;;;15.77;57.14;98958.81;2070161;28;19940;-56
2022/03/08 00:17:57;;;;;;;;;;;;;;;15.76;57.22;98953.63;2070375;28;19925;-59
2022/03/08 00:18:57;;;;;;;;;;;;;;;15.74;57.17;98959.19;2054744;28;19959;-58
2022/03/08 00:19:59;;;;;;;;;;;;;;;15.74;57.24;98961.84;2070454;28;19933;-58
2022/03/08 00:21:00;;;;;;;;;;;;;;;15.73;57.24;98956.66;2071147;28;20020;-59
2022/03/08 00:22:01;;;;;;;;;;;;;;;15.70;57.37;98963.19;2069180;28;19929;-58
2022/03/08 00:23:03;;;;;;;;;;;;;;;15.71;57.27;98959.53;2070363;28;20390;-58
2022/03/08 00:24:03;;;;;;;;;;;;;;;15.70;57.29;98963.19;2068529;28;19928;-55
2022/03/08 00:25:06;;;;;;;;;;;;;;;15.70;57.33;98965.03;2068738;28;20395;-57
2022/03/08 00:26:07;;;;;;;;;;;;;;;15.68;57.35;98961.66;2069396;28;19936;-56
2022/03/08 00:27:09;;;;;;;;;;;;;;;15.67;57.35;98960.84;2069688;28;20035;-58
2022/03/08 00:28:09;;;;;;;;;;;;;;;15.66;57.38;98967.22;2061890;28;21576;-54
2022/03/08 00:29:12;;;;;;;;;;;;;;;15.66;57.28;98972.56;2071310;28;19989;-58
2022/03/08 00:30:13;;;;;;;;;;;;;;;15.64;57.25;98967.38;2069529;28;19960;-58
2022/03/08 00:31:15;;;;;;;;;;;;;;;15.64;57.24;98963.88;2068496;28;19960;-57
2022/03/08 00:32:15;;;;;;;;;;;;;;;15.64;57.24;98969.22;2069664;28;20426;-59
2022/03/08 00:33:17;;;;;;;;;;;;;;;15.62;57.34;98974.72;2069824;28;19980;-55
2022/03/08 00:34:17;;;;;;;;;;;;;;;15.61;57.29;98969.56;2069000;28;19929;-60
2022/03/08 00:35:20;;;;;;;;;;;;;;;15.61;57.32;98972.25;2070400;28;19930;-61
2022/03/08 00:36:20;;;;;;;;;;;;;;;15.60;57.41;98973.25;2064019;28;20549;-54
2022/03/08 00:37:22;;;;;;;;;;;;;;;15.58;57.42;98969.94;2071067;28;19933;-59
2022/03/08 00:38:22;;;;;;;;;;;;;;;15.58;57.37;98977.97;2072299;28;19936;-59
2022/03/08 00:39:24;;;;;;;;;;;;;;;15.57;57.34;98973.59;2068095;28;20072;-57
2022/03/08 00:40:25;;;;;;;;;;;;;;;15.55;57.33;98971.13;2069800;28;20426;-53
2022/03/08 00:41:26;;;;;;;;;;;;;;;15.55;57.46;98970.28;2070660;28;20340;-54
2022/03/08 00:42:27;;;;;;;;;;;;;;;15.55;57.27;98978.31;2068746;28;19968;-57
2022/03/08 00:43:28;;;;;;;;;;;;;;;15.53;57.40;98980.31;2069380;28;19936;-56
2022/03/08 00:44:30;;;;;;;;;;;;;;;15.52;57.42;98976.81;2063020;28;19936;-59
2022/03/08 00:45:32;;;;;;;;;;;;;;;15.52;57.32;98976.00;2070529;28;19952;-60
2022/03/08 00:46:32;;;;;;;;;;;;;;;15.50;57.40;98978.81;2071826;28;19929;-55
2022/03/08 00:47:34;;;;;;;;;;;;;;;15.50;57.49;98975.31;2068468;28;19984;-58
2022/03/08 00:48:34;;;;;;;;;;;;;;;15.48;57.41;98978.16;2068378;28;20007;-58
2022/03/08 00:49:36;;;;;;;;;;;;;;;15.47;57.36;98983.69;2069304;28;19933;-55
2022/03/08 00:50:38;;;;;;;;;;;;;;;15.47;57.39;98981.03;2068350;28;20437;-61
2022/03/08 00:51:39;;;;;;;;;;;;;;;15.46;57.39;98979.34;2071539;28;20364;-59
2022/03/08 00:52:40;;;;;;;;;;;;;;;15.46;57.38;98984.69;2065308;28;19937;-63
2022/03/08 00:53:41;;;;;;;;;;;;;;;15.43;57.41;98983.19;2067190;28;22140;-62
2022/03/08 00:54:42;;;;;;;;;;;;;;;15.42;57.32;98979.69;2071233;28;20016;-62
2022/03/08 00:55:43;;;;;;;;;;;;;;;15.41;57.32;98983.38;2069521;28;19936;-62
2022/03/08 00:56:44;;;;;;;;;;;;;;;15.40;57.29;98979.03;2067836;28;20475;-61
2022/03/08 00:57:45;;;;;;;;;;;;;;;15.40;57.40;98983.53;2065471;28;19940;-59
2022/03/08 00:58:46;;;;;;;;;;;;;;;15.40;57.45;98983.53;2065539;28;19929;-61
2022/03/08 00:59:49;;;;;;;;;;;;;;;15.38;57.49;98980.22;2071684;28;20473;-59
2022/03/08 01:00:49;;;;;;;;;;;;;;;15.37;57.45;98983.88;2070128;28;19982;-58
2022/03/08 01:01:51;;;;;;;;;;;;;;;15.36;57.46;98983.06;2069259;28;19983;-60
2022/03/08 01:02:51;;;;;;;;;;;;;;;15.35;57.47;98975.22;2069647;28;20016;-60
2022/03/08 01:03:53;;;;;;;;;;;;;;;15.33;57.43;98975.41;2071081;28;20410;-61
2022/03/08 01:04:53;;;;;;;;;;;;;;;15.33;57.58;98980.75;2067026;28;20079;-60
2022/03/08 01:05:55;;;;;;;;;;;;;;;15.31;57.50;98980.06;2066730;28;19933;-59
2022/03/08 01:06:56;;;;;;;;;;;;;;;15.30;57.52;98975.75;2064826;28;20131;-60
2022/03/08 01:07:57;;;;;;;;;;;;;;;15.30;57.58;98977.59;2070322;28;19925;-63
2022/03/08 01:08:58;;;;;;;;;;;;;;;15.30;57.47;98974.91;2070575;28;19956;-61
2022/03/08 01:09:59;;;;;;;;;;;;;;;15.27;57.53;98978.78;2068691;28;19929;-63
2022/03/08 01:11:00;;;;;;;;;;;;;;;15.27;57.34;98976.09;2068522;28;20410;-59
2022/03/08 01:12:01;;;;;;;;;;;;;;;15.26;57.65;98971.75;2069008;28;19936;-57
2022/03/08 01:13:03;;;;;;;;;;;;;;;15.24;57.59;98973.78;2068296;28;19929;-59
2022/03/08 01:14:05;;;;;;;;;;;;;;;15.25;57.52;98983.44;2070495;28;19929;-60
2022/03/08 01:15:08;;;;;;;;;;;;;;;15.24;57.51;98976.44;2069732;28;19975;-63
2022/03/08 01:16:09;;;;;;;;;;;;;;;15.21;57.56;98971.44;2064655;28;20325;-59
2022/03/08 01:17:10;;;;;;;;;;;;;;;15.20;57.67;98975.94;2070933;28;19937;-59
2022/03/08 01:18:12;;;;;;;;;;;;;;;15.19;57.55;98971.63;2070936;28;20384;-61
2022/03/08 01:19:13;;;;;;;;;;;;;;;15.18;57.65;98971.78;2069085;28;20479;-61
2022/03/08 01:20:15;;;;;;;;;;;;;;;15.18;57.51;98977.97;2066980;28;19991;-59
2022/03/08 01:21:17;;;;;;;;;;;;;;;15.16;57.57;98974.63;2070390;28;21841;-62
2022/03/08 01:22:17;;;;;;;;;;;;;;;15.14;57.66;98979.31;2067483;28;20016;-59
2022/03/08 01:23:19;;;;;;;;;;;;;;;15.14;57.65;98973.13;2071345;28;19936;-63
2022/03/08 01:24:19;;;;;;;;;;;;;;;15.13;57.70;98972.31;2063875;28;19929;-63
2022/03/08 01:25:21;;;;;;;;;;;;;;;15.12;57.67;98961.78;2068149;28;19936;-63
2022/03/08 01:26:22;;;;;;;;;;;;;;;15.11;57.59;98968.16;2070623;28;19933;-60
2022/03/08 01:27:23;;;;;;;;;;;;;;;15.11;57.68;98970.81;2068511;28;19929;-64
2022/03/08 01:28:24;;;;;;;;;;;;;;;15.09;57.63;98970.16;2069299;28;19925;-59
2022/03/08 01:29:25;;;;;;;;;;;;;;;15.07;57.62;98962.31;2069277;28;20419;-63
2022/03/08 01:30:27;;;;;;;;;;;;;;;15.06;57.81;98968.66;2069232;28;20268;-60
2022/03/08 01:31:29;;;;;;;;;;;;;;;15.06;57.78;98973.16;2068894;28;19929;-61
2022/03/08 01:32:29;;;;;;;;;;;;;;;15.06;57.81;98973.16;2070534;28;19929;-60
2022/03/08 01:33:31;;;;;;;;;;;;;;;15.05;57.80;98974.19;2062554;28;20478;-63
2022/03/08 01:34:34;;;;;;;;;;;;;;;15.04;57.76;98973.31;2069539;28;19940;-58
2022/03/08 01:35:35;;;;;;;;;;;;;;;15.04;57.81;98972.50;2069352;28;20123;-57
2022/03/08 01:36:36;;;;;;;;;;;;;;;15.02;57.82;98972.69;2069440;28;19974;-60
2022/03/08 01:37:37;;;;;;;;;;;;;;;15.01;57.81;98975.50;2069648;28;20386;-60
2022/03/08 01:38:38;;;;;;;;;;;;;;;15.00;57.83;98971.19;2068294;28;20847;-61
2022/03/08 01:39:40;;;;;;;;;;;;;;;15.00;57.86;98971.19;2068151;28;19937;-61
2022/03/08 01:40:40;;;;;;;;;;;;;;;14.97;57.74;98981.19;2069954;28;20391;-60
2022/03/08 01:41:42;;;;;;;;;;;;;;;14.96;57.87;98976.88;2069852;28;19935;-63
2022/03/08 01:42:43;;;;;;;;;;;;;;;14.96;57.90;98978.72;2060411;28;19934;-60
2022/03/08 01:43:45;;;;;;;;;;;;;;;14.95;57.77;98980.53;2070538;28;19937;-61
2022/03/08 01:44:46;;;;;;;;;;;;;;;14.94;57.86;98981.53;2070379;28;19929;-59
2022/03/08 01:45:49;;;;;;;;;;;;;;;14.93;57.93;98977.22;2066761;28;19936;-58
2022/03/08 01:46:50;;;;;;;;;;;;;;;14.92;57.88;98980.88;2069002;28;20410;-64
2022/03/08 01:47:51;;;;;;;;;;;;;;;14.91;57.76;98979.22;2070350;28;19932;-61
2022/03/08 01:48:52;;;;;;;;;;;;;;;14.90;57.81;98977.53;2066867;28;19929;-59
2022/03/08 01:49:54;;;;;;;;;;;;;;;14.89;57.83;98980.41;2062211;28;19933;-62
2022/03/08 01:50:56;;;;;;;;;;;;;;;14.88;58.03;98984.09;2069137;28;19929;-60
2022/03/08 01:51:57;;;;;;;;;;;;;;;14.88;58.02;98986.75;2070457;28;19979;-61
2022/03/08 01:52:59;;;;;;;;;;;;;;;14.86;57.89;98992.25;2068631;28;19926;-63
2022/03/08 01:54:00;;;;;;;;;;;;;;;14.85;57.89;98985.25;2073004;28;20032;-63
2022/03/08 01:55:01;;;;;;;;;;;;;;;14.84;57.92;98990.75;2068633;28;19929;-59
2022/03/08 01:56:03;;;;;;;;;;;;;;;14.84;57.99;98990.75;2070175;28;20191;-63
2022/03/08 01:57:04;;;;;;;;;;;;;;;14.84;57.93;98982.75;2062932;28;19933;-60
2022/03/08 01:58:06;;;;;;;;;;;;;;;14.84;58.01;98988.91;2069012;28;20130;-60
2022/03/08 01:59:06;;;;;;;;;;;;;;;14.86;57.93;98992.25;2070639;28;19975;-64
2022/03/08 02:00:11;;;;;;;;;;;;;;;14.87;58.09;98991.25;2069958;28;19929;-59
2022/03/08 02:01:14;;;;;;;;;;;;;;;14.87;58.11;98993.91;2069861;28;19930;-61
2022/03/08 02:02:16;;;;;;;;;;;;;;;14.86;58.07;98989.56;2068642;28;19945;-60
2022/03/08 02:03:16;;;;;;;;;;;;;;;14.87;58.10;98993.91;2069031;28;20216;-64
2022/03/08 02:04:18;;;;;;;;;;;;;;;14.87;58.19;98993.06;2070205;28;19935;-62
2022/03/08 02:05:19;;;;;;;;;;;;;;;14.88;58.06;98992.09;2069903;28;20367;-64
2022/03/08 02:06:20;;;;;;;;;;;;;;;14.88;57.98;98994.75;2067142;28;20013;-60
2022/03/08 02:07:21;;;;;;;;;;;;;;;14.89;58.19;98996.41;2065090;28;19925;-60
2022/03/08 02:08:22;;;;;;;;;;;;;;;14.90;58.11;98995.41;2071495;28;20452;-62
2022/03/08 02:09:23;;;;;;;;;;;;;;;14.90;58.14;98998.06;2070701;28;19936;-62
2022/03/08 02:10:24;;;;;;;;;;;;;;;14.90;58.07;98993.56;2069302;28;19926;-62
2022/03/08 02:11:26;;;;;;;;;;;;;;;14.90;58.12;98993.56;2068408;28;20110;-60
2022/03/08 02:12:27;;;;;;;;;;;;;;;14.91;58.11;98995.25;2064029;28;19992;-61
2022/03/08 02:13:28;;;;;;;;;;;;;;;14.91;58.33;98995.25;2069389;28;20446;-60
2022/03/08 02:14:29;;;;;;;;;;;;;;;14.90;58.14;98993.56;2070126;28;19979;-59
2022/03/08 02:15:30;;;;;;;;;;;;;;;14.91;58.00;98999.75;2069421;28;19929;-61
2022/03/08 02:16:33;;;;;;;;;;;;;;;14.91;57.99;98991.75;2067990;28;19932;-60
2022/03/08 02:17:34;;;;;;;;;;;;;;;14.91;58.17;98997.91;2069460;28;19929;-59
2022/03/08 02:18:35;;;;;;;;;;;;;;;14.92;57.97;99002.25;2071137;28;19933;-64
2022/03/08 02:19:36;;;;;;;;;;;;;;;14.91;58.05;98999.75;2071222;28;19925;-58
2022/03/08 02:20:38;;;;;;;;;;;;;;;14.90;58.07;99001.56;2064195;28;20405;-61
2022/03/08 02:21:40;;;;;;;;;;;;;;;14.92;58.07;99001.41;2068906;28;19933;-58
2022/03/08 02:22:41;;;;;;;;;;;;;;;14.91;58.02;99000.59;2071054;28;19952;-59
2022/03/08 02:23:42;;;;;;;;;;;;;;;14.92;58.00;98996.91;2070073;28;19936;-64
2022/03/08 02:24:43;;;;;;;;;;;;;;;14.91;58.08;99000.59;2068726;28;20028;-58
2022/03/08 02:25:44;;;;;;;;;;;;;;;14.91;57.96;98991.75;2069597;28;19936;-63
2022/03/08 02:26:46;;;;;;;;;;;;;;;14.91;58.00;99000.59;2070689;28;20428;-62
2022/03/08 02:27:48;;;;;;;;;;;;;;;14.92;58.05;98996.91;2068361;28;19936;-59
2022/03/08 02:28:51;;;;;;;;;;;;;;;14.91;57.99;98995.25;2063925;28;19975;-61
2022/03/08 02:29:51;;;;;;;;;;;;;;;14.91;58.09;98994.41;2069051;28;20438;-56
2022/03/08 02:30:53;;;;;;;;;;;;;;;14.90;57.92;98998.91;2071946;28;19933;-61
2022/03/08 02:31:54;;;;;;;;;;;;;;;14.91;57.90;99002.44;2069488;28;19936;-63
2022/03/08 02:32:56;;;;;;;;;;;;;;;14.90;57.99;98993.56;2069801;28;19975;-62
2022/03/08 02:33:56;;;;;;;;;;;;;;;14.91;58.08;98999.75;2069536;28;19929;-62
2022/03/08 02:35:04;;;;;;;;;;;;;;;14.90;57.97;99009.59;2069306;28;19940;-61
2022/03/08 02:36:06;;;;;;;;;;;;;;;14.90;57.99;99003.41;2069839;28;19937;-60
2022/03/08 02:37:09;;;;;;;;;;;;;;;14.90;58.05;99004.25;2068208;28;21182;-59
2022/03/08 02:38:10;;;;;;;;;;;;;;;14.89;57.93;99010.59;2066683;28;19929;-59
2022/03/08 02:39:11;;;;;;;;;;;;;;;14.88;57.99;99006.28;2071181;28;20378;-62
2022/03/08 02:40:13;;;;;;;;;;;;;;;14.89;58.04;99010.59;2070992;28;19929;-58
2022/03/08 02:41:13;;;;;;;;;;;;;;;14.90;57.92;99011.44;2071055;28;20191;-60
2022/03/08 02:42:15;;;;;;;;;;;;;;;14.88;57.99;99011.63;2069763;28;20993;-59
2022/03/08 02:43:16;;;;;;;;;;;;;;;14.89;57.87;99015.13;2070713;28;19933;-58
2022/03/08 02:44:17;;;;;;;;;;;;;;;14.88;58.04;99010.78;2070427;28;20452;-61
2022/03/08 02:45:18;;;;;;;;;;;;;;;14.87;58.00;99017.94;2072138;28;20032;-57
2022/03/08 02:46:19;;;;;;;;;;;;;;;14.87;57.98;99009.09;2070220;28;20538;-65
2022/03/08 02:47:21;;;;;;;;;;;;;;;14.87;58.01;99015.28;2065787;28;20165;-60
2022/03/08 02:48:25;;;;;;;;;;;;;;;14.87;57.84;99014.44;2067419;28;19983;-61
2022/03/08 02:49:26;;;;;;;;;;;;;;;14.87;57.96;99019.78;2069903;28;19941;-62
2022/03/08 02:50:27;;;;;;;;;;;;;;;14.85;57.87;99022.63;2069735;28;19925;-57
2022/03/08 02:51:28;;;;;;;;;;;;;;;14.84;57.84;99023.63;2068202;28;20445;-60
2022/03/08 02:52:31;;;;;;;;;;;;;;;14.84;58.01;99026.28;2068049;28;19932;-63
2022/03/08 02:53:32;;;;;;;;;;;;;;;14.84;57.84;99017.47;2070501;28;20007;-58
2022/03/08 02:54:33;;;;;;;;;;;;;;;14.84;57.97;99020.94;2069103;28;19925;-56
2022/03/08 02:55:36;;;;;;;;;;;;;;;14.84;57.98;99022.78;2063329;28;19939;-57
2022/03/08 02:56:36;;;;;;;;;;;;;;;14.83;57.98;99023.81;2069388;28;22179;-59
2022/03/08 02:57:38;;;;;;;;;;;;;;;14.84;58.01;99023.63;2071197;28;20478;-60
2022/03/08 02:58:38;;;;;;;;;;;;;;;14.82;57.82;99025.66;2067731;28;19943;-61
2022/03/08 02:59:40;;;;;;;;;;;;;;;14.81;57.84;99021.28;2069350;28;19933;-59
2022/03/08 03:00:40;;;;;;;;;;;;;;;14.81;58.04;99021.28;2062463;28;19934;-60
2022/03/08 03:01:42;;;;;;;;;;;;;;;14.81;57.94;99025.81;2069151;28;19929;-61
2022/03/08 03:02:43;;;;;;;;;;;;;;;14.80;57.93;99022.31;2069386;28;19925;-60
2022/03/08 03:03:44;;;;;;;;;;;;;;;14.80;57.87;99026.81;2066680;28;19940;-59
2022/03/08 03:04:45;;;;;;;;;;;;;;;14.80;57.94;99027.66;2069463;28;19929;-63
2022/03/08 03:05:47;;;;;;;;;;;;;;;14.80;57.89;99032.16;2069246;28;19999;-57
2022/03/08 03:06:47;;;;;;;;;;;;;;;14.80;58.06;99029.50;2069560;28;19925;-60
2022/03/08 03:07:50;;;;;;;;;;;;;;;14.79;57.96;99031.31;2065263;28;19940;-64
2022/03/08 03:08:51;;;;;;;;;;;;;;;14.78;58.03;99032.31;2067276;28;19933;-58
2022/03/08 03:09:53;;;;;;;;;;;;;;;14.77;57.86;99036.00;2068701;28;20390;-61
2022/03/08 03:10:53;;;;;;;;;;;;;;;14.77;58.05;99024.50;2070368;28;20607;-62
2022/03/08 03:11:55;;;;;;;;;;;;;;;14.76;58.03;99042.31;2066410;28;19929;-59
2022/03/08 03:12:56;;;;;;;;;;;;;;;14.77;57.79;99033.34;2069712;28;19986;-62
2022/03/08 03:13:58;;;;;;;;;;;;;;;14.75;57.96;99036.16;2070126;28;19933;-63
2022/03/08 03:14:59;;;;;;;;;;;;;;;14.75;57.97;99030.00;2069122;28;20408;-60
2022/03/08 03:16:00;;;;;;;;;;;;;;;14.74;57.85;99037.16;2064005;28;19929;-60
2022/03/08 03:17:01;;;;;;;;;;;;;;;14.74;57.94;99031.84;2071132;28;19932;-63
2022/03/08 03:18:08;;;;;;;;;;;;;;;14.73;58.03;99035.50;2068770;28;19960;-61
2022/03/08 03:19:09;;;;;;;;;;;;;;;14.73;58.00;99034.66;2069388;28;21077;-61
2022/03/08 03:20:11;;;;;;;;;;;;;;;14.72;57.83;99033.81;2070240;28;20330;-63
2022/03/08 03:21:12;;;;;;;;;;;;;;;14.72;57.82;99038.34;2071606;28;19930;-61
2022/03/08 03:22:13;;;;;;;;;;;;;;;14.71;58.02;99034.84;2070455;28;20453;-61
2022/03/08 03:23:15;;;;;;;;;;;;;;;14.70;57.86;99029.66;2072093;28;20024;-63
2022/03/08 03:24:17;;;;;;;;;;;;;;;14.70;57.82;99038.50;2072954;28;19929;-61
2022/03/08 03:25:18;;;;;;;;;;;;;;;14.69;57.95;99034.16;2067743;28;20025;-63
2022/03/08 03:26:19;;;;;;;;;;;;;;;14.69;57.80;99038.69;2072697;28;19975;-59
2022/03/08 03:27:20;;;;;;;;;;;;;;;14.70;57.85;99040.34;2071904;28;19925;-61
2022/03/08 03:28:21;;;;;;;;;;;;;;;14.67;57.86;99033.50;2070275;28;20192;-58
2022/03/08 03:29:22;;;;;;;;;;;;;;;14.67;57.88;99038.84;2071302;28;19936;-62
2022/03/08 03:30:23;;;;;;;;;;;;;;;14.66;57.84;99034.50;2071411;28;20395;-61
2022/03/08 03:31:24;;;;;;;;;;;;;;;14.66;57.80;99041.69;2071531;28;19929;-63
2022/03/08 03:32:25;;;;;;;;;;;;;;;14.66;57.85;99044.34;2072427;28;19975;-61
2022/03/08 03:33:27;;;;;;;;;;;;;;;14.65;58.09;99043.50;2067600;28;20514;-64
2022/03/08 03:34:28;;;;;;;;;;;;;;;14.64;57.79;99044.50;2072759;28;19983;-64
2022/03/08 03:35:30;;;;;;;;;;;;;;;14.63;57.80;99044.69;2074213;28;19929;-64
2022/03/08 03:36:30;;;;;;;;;;;;;;;14.64;58.04;99046.34;2074105;28;19929;-63
2022/03/08 03:37:32;;;;;;;;;;;;;;;14.63;57.91;99042.03;2073917;28;19929;-60
2022/03/08 03:38:35;;;;;;;;;;;;;;;14.61;57.86;99042.19;2074876;28;19954;-58
2022/03/08 03:39:37;;;;;;;;;;;;;;;14.61;58.00;99047.53;2076995;28;19960;-65
2022/03/08 03:40:38;;;;;;;;;;;;;;;14.61;57.97;99046.69;2073331;28;19937;-62
2022/03/08 03:41:39;;;;;;;;;;;;;;;14.61;57.95;99052.03;2071671;28;19933;-61
2022/03/08 03:42:40;;;;;;;;;;;;;;;14.58;57.77;99042.53;2064578;28;19960;-61
2022/03/08 03:43:41;;;;;;;;;;;;;;;14.58;57.94;99047.84;2065390;28;20319;-63
2022/03/08 03:44:42;;;;;;;;;;;;;;;14.58;57.87;99047.84;2070529;28;19925;-61
2022/03/08 03:45:43;;;;;;;;;;;;;;;14.58;57.94;99044.38;2071932;28;19941;-63
2022/03/08 03:46:44;;;;;;;;;;;;;;;14.56;57.77;99046.34;2070371;28;19929;-58
2022/03/08 03:47:45;;;;;;;;;;;;;;;14.56;57.87;99043.69;2069200;28;20307;-62
2022/03/08 03:48:47;;;;;;;;;;;;;;;14.56;58.05;99043.69;2071397;28;19939;-59
2022/03/08 03:49:48;;;;;;;;;;;;;;;14.54;57.91;99041.16;2069164;28;19969;-61
2022/03/08 03:50:50;;;;;;;;;;;;;;;14.53;57.81;99043.00;2065735;28;19936;-64
2022/03/08 03:51:51;;;;;;;;;;;;;;;14.53;57.93;99044.84;2071148;28;19990;-64
2022/03/08 03:52:53;;;;;;;;;;;;;;;14.51;58.01;99049.47;2071883;28;19924;-61
2022/03/08 03:53:55;;;;;;;;;;;;;;;14.50;58.05;99045.16;2072679;28;19926;-60
2022/03/08 03:54:57;;;;;;;;;;;;;;;14.50;57.80;99048.66;2069799;28;20028;-62
2022/03/08 03:55:58;;;;;;;;;;;;;;;14.50;58.02;99051.31;2071037;28;19933;-61
2022/03/08 03:56:59;;;;;;;;;;;;;;;14.49;58.11;99048.84;2072901;28;19930;-60
2022/03/08 03:57:59;;;;;;;;;;;;;;;14.47;57.92;99043.66;2069477;28;19963;-60
2022/03/08 03:59:01;;;;;;;;;;;;;;;14.48;57.95;99041.81;2069569;28;19934;-62
2022/03/08 04:00:02;;;;;;;;;;;;;;;14.47;58.08;99045.50;2064686;28;19936;-64
2022/03/08 04:01:04;;;;;;;;;;;;;;;14.46;58.10;99047.34;2073059;28;20482;-60
2022/03/08 04:02:05;;;;;;;;;;;;;;;14.45;58.16;99042.97;2071388;28;19929;-56
2022/03/08 04:03:07;;;;;;;;;;;;;;;14.44;57.97;99045.84;2070252;28;20008;-61
2022/03/08 04:04:07;;;;;;;;;;;;;;;14.43;57.99;99042.34;2069387;28;19933;-61
2022/03/08 04:05:10;;;;;;;;;;;;;;;14.42;58.01;99043.31;2072074;28;20832;-56
2022/03/08 04:06:10;;;;;;;;;;;;;;;14.42;58.16;99054.00;2069861;28;19971;-61
2022/03/08 04:07:12;;;;;;;;;;;;;;;14.43;58.15;99044.16;2072631;28;20468;-60
2022/03/08 04:08:13;;;;;;;;;;;;;;;14.42;57.94;99048.66;2071742;28;20585;-63
2022/03/08 04:09:16;;;;;;;;;;;;;;;14.43;58.03;99049.47;2066069;28;20308;-59
2022/03/08 04:10:17;;;;;;;;;;;;;;;14.42;58.04;99045.97;2071199;28;20364;-54
2022/03/08 04:11:19;;;;;;;;;;;;;;;14.42;58.06;99043.31;2072143;28;20016;-60
2022/03/08 04:12:19;;;;;;;;;;;;;;;14.42;58.16;99043.31;2069465;28;19930;-60
2022/03/08 04:13:21;;;;;;;;;;;;;;;14.44;58.08;99035.16;2070919;28;19944;-60
2022/03/08 04:14:21;;;;;;;;;;;;;;;14.42;58.13;99040.66;2066381;28;19933;-61
2022/03/08 04:15:23;;;;;;;;;;;;;;;14.43;58.14;99044.16;2066737;28;19951;-59
2022/03/08 04:16:23;;;;;;;;;;;;;;;14.43;58.12;99045.00;2072644;28;20328;-58
2022/03/08 04:17:25;;;;;;;;;;;;;;;14.44;58.11;99040.50;2073171;28;19940;-54
2022/03/08 04:18:26;;;;;;;;;;;;;;;14.44;58.12;99045.84;2069666;28;19933;-62
2022/03/08 04:19:27;;;;;;;;;;;;;;;14.44;58.27;99045.84;2070638;28;19933;-59
2022/03/08 04:20:28;;;;;;;;;;;;;;;14.44;58.18;99044.00;2070865;28;19930;-62
2022/03/08 04:21:29;;;;;;;;;;;;;;;14.44;58.15;99045.84;2072054;28;19925;-60
2022/03/08 04:22:31;;;;;;;;;;;;;;;14.43;58.12;99050.34;2072743;28;19983;-60
2022/03/08 04:23:31;;;;;;;;;;;;;;;14.43;58.22;99042.34;2062978;28;19933;-60
2022/03/08 04:24:34;;;;;;;;;;;;;;;14.44;58.27;99053.84;2071465;28;20004;-63
2022/03/08 04:25:35;;;;;;;;;;;;;;;14.44;58.03;99057.34;2071889;28;19932;-61
2022/03/08 04:26:37;;;;;;;;;;;;;;;14.43;58.34;99054.81;2071324;28;19929;-62
2022/03/08 04:27:38;;;;;;;;;;;;;;;14.43;58.23;99054.81;2072849;28;20430;-64
2022/03/08 04:28:39;;;;;;;;;;;;;;;14.44;58.10;99053.84;2071263;28;19942;-54
2022/03/08 04:29:40;;;;;;;;;;;;;;;14.43;58.06;99058.34;2070018;28;19936;-62
2022/03/08 04:30:41;;;;;;;;;;;;;;;14.44;58.30;99056.50;2067485;28;20811;-56
2022/03/08 04:31:42;;;;;;;;;;;;;;;14.42;58.22;99059.31;2069844;28;19926;-64
2022/03/08 04:32:44;;;;;;;;;;;;;;;14.43;57.94;99054.81;2073069;28;19929;-60
2022/03/08 04:33:44;;;;;;;;;;;;;;;14.43;58.09;99061.00;2072996;28;20296;-60
2022/03/08 04:34:46;;;;;;;;;;;;;;;14.42;58.16;99054.00;2069967;28;20003;-58
2022/03/08 04:35:46;;;;;;;;;;;;;;;14.42;58.17;99056.66;2071779;28;19930;-59
2022/03/08 04:36:48;;;;;;;;;;;;;;;14.42;58.06;99061.16;2071629;28;20351;-60
2022/03/08 04:37:48;;;;;;;;;;;;;;;14.42;58.21;99048.66;2071791;28;20028;-61
2022/03/08 04:38:50;;;;;;;;;;;;;;;14.42;58.10;99053.16;2073070;28;19929;-60
2022/03/08 04:39:52;;;;;;;;;;;;;;;14.41;58.12;99054.16;2073537;28;19925;-60
2022/03/08 04:40:53;;;;;;;;;;;;;;;14.41;58.26;99052.34;2062474;28;19936;-59
2022/03/08 04:41:54;;;;;;;;;;;;;;;14.40;58.08;99048.00;2073033;28;19929;-62
2022/03/08 04:42:55;;;;;;;;;;;;;;;14.41;58.13;99054.16;2073773;28;20288;-61
2022/03/08 04:43:56;;;;;;;;;;;;;;;14.40;58.10;99050.69;2070471;28;19929;-61
2022/03/08 04:44:57;;;;;;;;;;;;;;;14.40;58.16;99060.50;2071453;28;19957;-59
2022/03/08 04:45:58;;;;;;;;;;;;;;;14.40;58.14;99055.16;2070248;28;20000;-60
2022/03/08 04:46:59;;;;;;;;;;;;;;;14.39;58.08;99050.81;2072104;28;20053;-60
2022/03/08 04:48:00;;;;;;;;;;;;;;;14.39;58.25;99049.00;2072360;28;19925;-60
2022/03/08 04:49:01;;;;;;;;;;;;;;;14.38;58.10;99052.66;2071807;28;19925;-58
2022/03/08 04:50:02;;;;;;;;;;;;;;;14.39;58.05;99054.31;2067266;28;20020;-63
2022/03/08 04:51:04;;;;;;;;;;;;;;;14.39;58.09;99057.00;2066908;28;19933;-59
2022/03/08 04:52:04;;;;;;;;;;;;;;;14.38;58.26;99055.34;2072138;28;19955;-58
2022/03/08 04:53:06;;;;;;;;;;;;;;;14.38;58.24;99052.66;2073114;28;20068;-59
2022/03/08 04:54:07;;;;;;;;;;;;;;;14.37;58.25;99048.31;2068332;28;19940;-60
2022/03/08 04:55:10;;;;;;;;;;;;;;;14.37;58.04;99055.50;2071645;28;20315;-57
2022/03/08 04:56:11;;;;;;;;;;;;;;;14.38;58.20;99052.66;2071701;28;19931;-58
2022/03/08 04:57:12;;;;;;;;;;;;;;;14.37;58.18;99050.97;2070174;28;19929;-59
2022/03/08 04:58:13;;;;;;;;;;;;;;;14.36;58.05;99049.31;2066787;28;20222;-62
2022/03/08 04:59:14;;;;;;;;;;;;;;;14.37;58.15;99053.66;2070868;28;19932;-60
2022/03/08 05:00:16;;;;;;;;;;;;;;;14.37;58.17;99050.16;2072814;28;19979;-62
2022/03/08 05:01:17;;;;;;;;;;;;;;;14.36;58.02;99049.31;2072170;28;19975;-62
2022/03/08 05:02:18;;;;;;;;;;;;;;;14.35;58.10;99041.47;2068796;28;20234;-62
2022/03/08 05:03:19;;;;;;;;;;;;;;;14.35;58.13;99047.66;2072103;28;20032;-58
2022/03/08 05:04:21;;;;;;;;;;;;;;;14.35;58.04;99046.81;2074588;28;20427;-58
2022/03/08 05:05:22;;;;;;;;;;;;;;;14.36;58.12;99051.16;2071635;28;20241;-56
2022/03/08 05:06:23;;;;;;;;;;;;;;;14.36;58.14;99051.16;2072359;28;20269;-59
2022/03/08 05:07:24;;;;;;;;;;;;;;;14.36;58.09;99043.97;2071779;28;20043;-59
2022/03/08 05:08:25;;;;;;;;;;;;;;;14.37;58.21;99045.66;2068407;28;19936;-61
2022/03/08 05:09:26;;;;;;;;;;;;;;;14.40;58.46;99050.69;2073775;28;20387;-63
2022/03/08 05:10:28;;;;;;;;;;;;;;;14.41;58.13;99049.66;2073229;28;19930;-62
2022/03/08 05:11:30;;;;;;;;;;;;;;;14.45;58.30;99042.16;2066545;28;19929;-63
2022/03/08 05:12:31;;;;;;;;;;;;;;;14.48;58.28;99041.81;2070897;28;20206;-59
2022/03/08 05:13:32;;;;;;;;;;;;;;;14.51;58.17;99039.66;2074047;28;20490;-60
2022/03/08 05:14:33;;;;;;;;;;;;;;;14.54;58.45;99046.50;2074519;28;19925;-60
2022/03/08 05:15:36;;;;;;;;;;;;;;;14.60;58.25;99047.69;2071477;28;19933;-61
2022/03/08 05:16:37;;;;;;;;;;;;;;;14.65;58.20;99050.69;2070949;28;19926;-59
2022/03/08 05:17:38;;;;;;;;;;;;;;;14.71;58.20;99058.03;2070067;28;20812;-61
2022/03/08 05:18:39;;;;;;;;;;;;;;;14.74;58.22;99057.72;2071517;28;20222;-59
2022/03/08 05:19:40;;;;;;;;;;;;;;;14.78;58.20;99048.34;2074073;28;19933;-61